Hauptseite
METAR-TAF:

METAR-TAF

Flughäfen :

Militärflugplatz Piacenza

Piacenza, Italien

Breite: 44-55N, Länge: 009-44E, Höhe: 134 m

Beobachtung

Neuester Wetterbericht von vor 10 Stunden und 10 Minuten, um 17:55 UTC
Wind 9 kt aus West/Südwest, variierte zwischen Süd/Südwest und West/Nordwest
Temperatur 24°C
Luftfeuchtigkeit 57%
Luftdruck 1004 hPa
Sichtweite 10 km oder mehr
Leicht bewölkt in der Höhe von 3000 ft, Kumulonimbus.

METAR: LIMS 061755Z 24009KT 200V290 9999 FEW030CB 24/15 Q1004 RETS RMK BKN BKN240 VIS MIN 9999 WIND THR30 22010KT BLU

Zeit: 06:05 (04:05 UTC)


TAF: fehlend

Wetterbeobachtungen und Prognosen von mehr als 4000 Flughäfen (METAR und TAF Bericht).

Die verfügbaren Stationen werden durch gelbe und rote Markierungen auf der Karte dargestellt.

Führen Sie die Maus auf sie, um den Namen der Station zu sehen.

Darauf klicken, um die Beobachtung von Wetterbeobachtungen und Prognosen zu sehen.

Um die Karte zu ändern : klicken Sie auf den grünen Tasten mit einem schwarzen Kreuz Zum Vergrößern, auf den grünen Button mit einem Gedankenstrich zu verkleinern, oder auf die grünen Pfeile für benachbarte Karten.


METAR-TAF: